createdAt,value
2022-10-18T00:02:09.625Z,101162.00
2022-10-18T00:04:42.894Z,101164.00
2022-10-18T00:07:15.840Z,101157.40
2022-10-18T00:09:48.564Z,101154.40
2022-10-18T00:12:21.305Z,101158.80
2022-10-18T00:14:54.694Z,101161.20
2022-10-18T00:17:27.646Z,101154.80
2022-10-18T00:20:00.769Z,101152.80
2022-10-18T00:22:35.115Z,101154.00
2022-10-18T00:25:10.282Z,101157.60
2022-10-18T00:27:43.176Z,101158.60
2022-10-18T00:30:16.162Z,101156.60
2022-10-18T00:32:49.113Z,101154.20
2022-10-18T00:35:22.116Z,101151.40
2022-10-18T00:37:54.929Z,101155.80
2022-10-18T00:40:27.674Z,101153.40
2022-10-18T00:43:00.466Z,101151.40
2022-10-18T00:45:33.632Z,101153.20
2022-10-18T00:48:07.872Z,101157.40
2022-10-18T00:50:41.632Z,101153.00
2022-10-18T00:53:20.375Z,101148.80
2022-10-18T00:55:53.743Z,101147.80
2022-10-18T00:58:26.734Z,101147.60
2022-10-18T01:00:59.636Z,101146.00
2022-10-18T01:03:32.660Z,101139.80
2022-10-18T01:06:05.735Z,101136.80
2022-10-18T01:09:15.870Z,101132.60
2022-10-18T01:12:10.591Z,101135.20
2022-10-18T01:14:52.235Z,101135.20
2022-10-18T01:17:32.763Z,101130.80
2022-10-18T01:20:39.526Z,101133.20
2022-10-18T01:23:20.465Z,101136.80
2022-10-18T01:26:05.865Z,101130.80
2022-10-18T01:28:55.869Z,101124.20
2022-10-18T01:31:34.265Z,101125.60
2022-10-18T01:34:11.053Z,101123.80
2022-10-18T01:36:47.892Z,101126.20
2022-10-18T01:39:25.890Z,101121.40
2022-10-18T01:42:00.987Z,101119.60
2022-10-18T01:44:36.342Z,101115.80
2022-10-18T01:47:12.192Z,101112.80
2022-10-18T01:49:45.013Z,101112.20
2022-10-18T01:52:19.174Z,101109.60
2022-10-18T01:54:53.254Z,101109.40
2022-10-18T01:57:35.934Z,101111.20
2022-10-18T02:00:14.941Z,101111.40
2022-10-18T02:02:53.970Z,101113.40
2022-10-18T02:05:34.232Z,101112.60
2022-10-18T02:08:22.865Z,101109.00
2022-10-18T02:11:02.117Z,101110.40
2022-10-18T02:13:38.737Z,101113.40
2022-10-18T02:16:14.758Z,101110.00
2022-10-18T02:19:00.877Z,101107.00
2022-10-18T02:21:34.452Z,101114.00
2022-10-18T02:24:09.459Z,101111.80
2022-10-18T02:26:42.547Z,101114.60
2022-10-18T02:29:15.464Z,101113.40
2022-10-18T02:31:51.240Z,101110.00
2022-10-18T02:34:28.529Z,101113.20
2022-10-18T02:37:03.212Z,101118.60
2022-10-18T02:39:38.974Z,101112.60
2022-10-18T02:42:15.222Z,101107.40
2022-10-18T02:44:47.964Z,101109.80
2022-10-18T02:47:20.831Z,101112.60
2022-10-18T02:49:53.714Z,101109.00
2022-10-18T02:52:26.563Z,101107.60
2022-10-18T02:54:59.369Z,101111.80
2022-10-18T02:57:32.680Z,101108.80
2022-10-18T03:00:07.247Z,101114.80
2022-10-18T03:02:40.058Z,101118.00
2022-10-18T03:05:13.081Z,101122.80
2022-10-18T03:07:45.825Z,101128.60
2022-10-18T03:10:18.628Z,101124.20
2022-10-18T03:12:51.378Z,101121.60
2022-10-18T03:15:24.169Z,101129.00
2022-10-18T03:17:57.240Z,101127.20
2022-10-18T03:20:30.238Z,101132.00
2022-10-18T03:23:03.490Z,101128.80
2022-10-18T03:25:36.340Z,101139.20
2022-10-18T03:28:09.701Z,101136.80
2022-10-18T03:30:42.738Z,101137.40
2022-10-18T03:33:15.712Z,101141.20
2022-10-18T03:35:48.505Z,101142.00
2022-10-18T03:38:21.271Z,101142.40
2022-10-18T03:40:54.088Z,101144.60
2022-10-18T03:43:26.964Z,101148.60
2022-10-18T03:45:59.862Z,101147.80
2022-10-18T03:48:32.699Z,101150.00
2022-10-18T03:51:05.688Z,101150.20
2022-10-18T03:53:38.593Z,101147.00
2022-10-18T03:56:11.622Z,101147.00
2022-10-18T03:58:44.551Z,101151.00
2022-10-18T04:01:17.549Z,101148.00
2022-10-18T04:03:50.347Z,101151.20
2022-10-18T04:06:23.068Z,101154.40
2022-10-18T04:08:57.578Z,101161.80
2022-10-18T04:11:30.387Z,101160.20
2022-10-18T04:14:03.453Z,101162.60
2022-10-18T04:19:13.983Z,101163.00
2022-10-18T04:21:46.783Z,101160.80
2022-10-18T04:24:20.784Z,101160.40
2022-10-18T04:26:53.642Z,101162.00
2022-10-18T04:29:26.760Z,101161.80
2022-10-18T04:31:59.535Z,101163.40
2022-10-18T04:34:32.494Z,101163.40
2022-10-18T04:37:05.454Z,101160.00
2022-10-18T04:39:38.243Z,101147.00
2022-10-18T04:42:11.020Z,101149.60
2022-10-18T04:44:43.796Z,101153.40
2022-10-18T04:47:16.697Z,101157.20
2022-10-18T04:49:52.347Z,101155.60
2022-10-18T04:52:25.182Z,101158.60
2022-10-18T04:54:57.980Z,101156.20
2022-10-18T04:57:31.160Z,101154.60
2022-10-18T05:00:04.421Z,101149.60
2022-10-18T05:02:37.228Z,101151.20
2022-10-18T05:05:13.950Z,101151.00
2022-10-18T05:07:47.110Z,101151.80
2022-10-18T05:10:22.019Z,101152.60
2022-10-18T05:12:54.854Z,101148.60
2022-10-18T05:15:27.830Z,101147.60
2022-10-18T05:18:00.613Z,101145.60
2022-10-18T05:20:33.535Z,101151.80
2022-10-18T05:23:06.314Z,101153.80
2022-10-18T05:25:40.880Z,101156.60
2022-10-18T05:28:38.001Z,101152.40
2022-10-18T05:31:08.726Z,101150.80
2022-10-18T05:33:41.963Z,101144.00
2022-10-18T05:36:15.160Z,101145.80
2022-10-18T05:38:48.456Z,101147.40
2022-10-18T05:41:21.351Z,101140.40
2022-10-18T05:43:54.270Z,101140.60
2022-10-18T05:46:27.195Z,101143.40
2022-10-18T05:48:59.975Z,101140.20
2022-10-18T05:51:32.820Z,101140.40
2022-10-18T05:54:05.677Z,101149.80
2022-10-18T05:59:16.568Z,101143.40
2022-10-18T06:01:49.432Z,101148.40
2022-10-18T06:04:22.513Z,101149.80
2022-10-18T06:06:56.289Z,101151.00
2022-10-18T06:09:30.797Z,101152.40
2022-10-18T06:12:03.613Z,101155.60
2022-10-18T06:14:36.764Z,101155.20
2022-10-18T06:17:09.549Z,101151.40
2022-10-18T06:19:44.467Z,101159.40
2022-10-18T06:22:17.374Z,101157.20
2022-10-18T06:24:55.071Z,101160.60
2022-10-18T06:27:31.952Z,101164.60
2022-10-18T06:30:05.192Z,101158.00
2022-10-18T06:32:38.133Z,101165.80
2022-10-18T06:35:12.319Z,101163.80
2022-10-18T06:37:45.249Z,101165.00
2022-10-18T06:40:18.413Z,101163.40
2022-10-18T06:43:00.335Z,101160.00
2022-10-18T06:45:33.971Z,101155.20
2022-10-18T06:48:07.414Z,101158.20
2022-10-18T06:50:40.409Z,101156.60
2022-10-18T06:53:13.406Z,101156.40
2022-10-18T06:55:46.918Z,101156.40
2022-10-18T06:58:19.736Z,101157.60
2022-10-18T07:00:52.731Z,101158.40
2022-10-18T07:03:26.352Z,101158.20
2022-10-18T07:06:03.141Z,101159.60
2022-10-18T07:08:36.275Z,101159.40
2022-10-18T07:11:10.563Z,101162.00
2022-10-18T07:13:43.629Z,101160.00
2022-10-18T07:16:18.728Z,101160.60
2022-10-18T07:18:52.985Z,101160.80
2022-10-18T07:21:27.501Z,101166.40
2022-10-18T07:24:01.425Z,101166.20
2022-10-18T07:26:36.569Z,101164.00
2022-10-18T07:29:13.381Z,101168.40
2022-10-18T07:31:46.482Z,101173.20
2022-10-18T07:34:19.795Z,101168.40
2022-10-18T07:36:52.535Z,101168.60
2022-10-18T07:39:25.420Z,101170.80
2022-10-18T07:41:58.767Z,101176.60
2022-10-18T07:44:31.669Z,101173.20
2022-10-18T07:47:04.445Z,101169.40
2022-10-18T07:49:37.315Z,101174.80
2022-10-18T07:52:10.125Z,101177.20
2022-10-18T07:54:42.995Z,101172.80
2022-10-18T07:57:15.946Z,101173.40
2022-10-18T07:59:52.406Z,101171.40
2022-10-18T08:02:25.463Z,101167.20
2022-10-18T08:04:58.397Z,101164.80
2022-10-18T08:07:33.353Z,101162.80
2022-10-18T08:10:07.104Z,101164.00
2022-10-18T08:12:39.902Z,101157.00
2022-10-18T08:15:14.380Z,101153.80
2022-10-18T08:17:47.258Z,101152.00
2022-10-18T08:20:30.519Z,101144.40
2022-10-18T08:23:03.992Z,101145.40
2022-10-18T08:28:14.711Z,101136.80
2022-10-18T08:30:47.707Z,101131.80
2022-10-18T08:33:20.523Z,101126.20
2022-10-18T08:36:01.307Z,101121.00
2022-10-18T08:38:36.048Z,101123.60
2022-10-18T08:41:50.042Z,101118.00
2022-10-18T08:44:26.555Z,101111.80
2022-10-18T08:47:05.412Z,101105.60
2022-10-18T08:49:46.845Z,101105.20
2022-10-18T08:52:36.866Z,101105.60
2022-10-18T08:55:17.284Z,101105.40
2022-10-18T08:57:52.067Z,101108.60
2022-10-18T09:00:30.179Z,101106.60
2022-10-18T09:03:23.889Z,101102.00
2022-10-18T09:06:03.347Z,101102.20
2022-10-18T09:08:56.271Z,101099.60
2022-10-18T09:11:48.258Z,101096.60
2022-10-18T09:14:50.708Z,101096.60
2022-10-18T09:17:33.741Z,101100.20
2022-10-18T09:20:23.132Z,101103.40
2022-10-18T09:23:13.380Z,101094.40
2022-10-18T09:25:50.167Z,101094.20
2022-10-18T09:28:35.603Z,101088.20
2022-10-18T09:31:15.526Z,101068.00
2022-10-18T09:33:55.292Z,101071.20
2022-10-18T09:36:28.109Z,101061.40
2022-10-18T09:39:04.792Z,101067.40
2022-10-18T09:41:45.959Z,101060.60
2022-10-18T09:44:23.792Z,101054.60
2022-10-18T09:47:01.652Z,101058.80
2022-10-18T09:49:39.654Z,101055.40
2022-10-18T09:52:26.845Z,101054.20
2022-10-18T09:55:04.548Z,101047.00
2022-10-18T09:57:41.659Z,101042.00
2022-10-18T10:00:24.342Z,101044.40
2022-10-18T10:02:57.808Z,101047.20
2022-10-18T10:05:30.982Z,101041.80
2022-10-18T10:08:04.977Z,101038.80
2022-10-18T10:10:40.248Z,101032.60
2022-10-18T10:13:26.372Z,101037.00
2022-10-18T10:16:02.602Z,101033.80
2022-10-18T10:18:37.997Z,101024.00
2022-10-18T10:21:17.331Z,101015.20
2022-10-18T10:23:55.168Z,101016.80
2022-10-18T10:26:33.476Z,101008.80
2022-10-18T10:29:43.720Z,101007.20
2022-10-18T10:32:19.998Z,101000.40
2022-10-18T10:34:53.385Z,100993.40
2022-10-18T10:37:40.841Z,100989.60
2022-10-18T10:40:25.279Z,100991.80
2022-10-18T10:43:36.534Z,100988.40
2022-10-18T10:46:13.227Z,100998.00
2022-10-18T10:49:04.253Z,101001.00
2022-10-18T10:51:44.426Z,100997.20
2022-10-18T10:54:21.717Z,100990.20
2022-10-18T10:57:02.417Z,100991.40
2022-10-18T10:59:44.757Z,100988.00
2022-10-18T11:02:27.660Z,100986.80
2022-10-18T11:05:24.884Z,100987.00
2022-10-18T11:08:00.809Z,100978.40
2022-10-18T11:10:40.087Z,100967.20
2022-10-18T11:13:33.197Z,100966.60
2022-10-18T11:16:15.107Z,100972.40
2022-10-18T11:18:52.615Z,100984.00
2022-10-18T11:21:29.249Z,100973.80
2022-10-18T11:24:05.025Z,100968.80
2022-10-18T11:26:53.841Z,100958.20
2022-10-18T11:29:44.886Z,100961.40
2022-10-18T11:32:27.378Z,100955.80
2022-10-18T11:35:21.258Z,100958.00
2022-10-18T11:38:13.957Z,100953.80
2022-10-18T11:41:01.043Z,100947.20
2022-10-18T11:44:01.047Z,100938.00
2022-10-18T11:46:52.142Z,100929.20
2022-10-18T11:49:54.098Z,100922.00
2022-10-18T11:52:36.805Z,100909.80
2022-10-18T11:55:33.434Z,100894.40
2022-10-18T11:58:19.606Z,100888.80
2022-10-18T12:00:58.560Z,100885.80
2022-10-18T12:03:47.076Z,100892.40
2022-10-18T12:06:25.186Z,100889.20
2022-10-18T12:09:02.605Z,100887.00
2022-10-18T12:11:45.438Z,100878.60
2022-10-18T12:14:28.043Z,100874.60
2022-10-18T12:17:39.917Z,100865.40
2022-10-18T12:20:00.557Z,100868.40
2022-10-18T12:22:39.856Z,100862.00
2022-10-18T12:25:19.251Z,100855.20
2022-10-18T12:28:03.650Z,100847.20
2022-10-18T12:30:45.580Z,100843.60
2022-10-18T12:33:28.375Z,100840.20
2022-10-18T12:36:12.932Z,100827.40
2022-10-18T12:38:49.410Z,100829.80
2022-10-18T12:41:27.089Z,100828.20
2022-10-18T12:44:05.324Z,100834.00
2022-10-18T12:46:52.964Z,100834.40
2022-10-18T12:49:31.504Z,100831.00
2022-10-18T12:52:08.622Z,100831.20
2022-10-18T12:54:42.468Z,100823.80
2022-10-18T12:57:26.529Z,100825.60
2022-10-18T12:59:59.487Z,100816.60
2022-10-18T13:02:36.400Z,100809.00
2022-10-18T13:06:01.574Z,100808.40
2022-10-18T13:08:46.003Z,100803.20
2022-10-18T13:11:36.992Z,100797.20
2022-10-18T13:15:05.996Z,100790.80
2022-10-18T13:17:57.429Z,100793.80
2022-10-18T13:20:38.589Z,100800.40
2022-10-18T13:23:37.119Z,100793.80
2022-10-18T13:26:24.515Z,100797.20
2022-10-18T13:29:07.152Z,100795.80
2022-10-18T13:31:46.449Z,100792.00
2022-10-18T13:34:33.191Z,100788.20
2022-10-18T13:37:19.936Z,100790.80
2022-10-18T13:40:14.308Z,100796.20
2022-10-18T13:42:47.380Z,100793.60
2022-10-18T13:45:55.541Z,100792.00
2022-10-18T13:48:52.130Z,100791.20
2022-10-18T13:51:47.157Z,100785.80
2022-10-18T13:54:47.094Z,100786.40
2022-10-18T13:57:39.213Z,100791.20
2022-10-18T14:00:33.972Z,100797.80
2022-10-18T14:03:55.678Z,100801.80
2022-10-18T14:06:24.988Z,100824.20
2022-10-18T14:09:09.746Z,100836.00
2022-10-18T14:11:55.260Z,100836.60
2022-10-18T14:14:36.588Z,100855.20
2022-10-18T14:17:20.939Z,100864.20
2022-10-18T14:19:58.557Z,100868.00
2022-10-18T14:22:36.715Z,100850.40
2022-10-18T14:25:30.709Z,100865.40
2022-10-18T14:28:18.451Z,100874.20
2022-10-18T14:31:02.228Z,100879.60
2022-10-18T14:33:42.387Z,100882.80
2022-10-18T14:36:24.438Z,100895.80
2022-10-18T14:39:00.493Z,100902.20
2022-10-18T14:41:35.261Z,100915.60
2022-10-18T14:44:26.307Z,100921.20
2022-10-18T14:47:05.700Z,100926.40
2022-10-18T14:49:45.448Z,100921.00
2022-10-18T14:52:24.066Z,100929.40
2022-10-18T14:55:01.727Z,100929.80
2022-10-18T14:57:38.311Z,100936.00
2022-10-18T15:03:01.802Z,100952.60
2022-10-18T15:05:34.652Z,100958.80
2022-10-18T15:08:07.907Z,100957.80
2022-10-18T15:10:40.908Z,100955.00
2022-10-18T15:13:15.610Z,100946.60
2022-10-18T15:15:49.210Z,100946.20
2022-10-18T15:18:26.646Z,100962.20
2022-10-18T15:21:25.582Z,100963.40
2022-10-18T15:24:22.054Z,100969.00
2022-10-18T15:26:56.404Z,100966.00
2022-10-18T15:29:33.308Z,100966.80
2022-10-18T15:32:20.908Z,100964.00
2022-10-18T15:34:54.426Z,100958.00
2022-10-18T15:37:41.427Z,100962.00
2022-10-18T15:40:38.166Z,100971.00
2022-10-18T15:43:39.968Z,100977.60
2022-10-18T15:46:34.114Z,100989.40
2022-10-18T15:49:56.743Z,100997.40
2022-10-18T15:52:46.364Z,101003.20
2022-10-18T15:55:49.277Z,101008.00
2022-10-18T15:58:39.216Z,101005.20
2022-10-18T16:01:18.365Z,100992.60
2022-10-18T16:06:30.609Z,100999.20
2022-10-18T16:09:03.635Z,100990.20
2022-10-18T16:11:36.446Z,100994.00
2022-10-18T16:14:09.321Z,100989.80
2022-10-18T16:16:42.582Z,100992.00
2022-10-18T16:19:18.901Z,100997.80
2022-10-18T16:21:52.801Z,101005.00
2022-10-18T16:24:26.115Z,101014.40
2022-10-18T16:26:58.939Z,101023.00
2022-10-18T16:29:33.201Z,101028.20
2022-10-18T16:32:06.592Z,101023.00
2022-10-18T16:34:39.591Z,101032.80
2022-10-18T16:37:13.468Z,101045.20
2022-10-18T16:39:46.572Z,101049.80
2022-10-18T16:42:19.313Z,101046.00
2022-10-18T16:44:53.836Z,101050.80
2022-10-18T16:47:26.616Z,101055.40
2022-10-18T16:50:04.093Z,101052.40
2022-10-18T16:52:39.434Z,101058.40
2022-10-18T16:55:21.118Z,101059.20
2022-10-18T16:57:55.174Z,101058.40
2022-10-18T17:00:28.187Z,101059.20
2022-10-18T17:03:00.927Z,101057.00
2022-10-18T17:05:34.073Z,101054.40
2022-10-18T17:08:07.226Z,101057.40
2022-10-18T17:10:40.157Z,101064.40
2022-10-18T17:13:12.869Z,101070.80
2022-10-18T17:15:46.730Z,101075.20
2022-10-18T17:18:23.370Z,101076.60
2022-10-18T17:20:56.738Z,101082.00
2022-10-18T17:23:29.776Z,101086.60
2022-10-18T17:26:26.247Z,101083.20
2022-10-18T17:28:57.755Z,101091.20
2022-10-18T17:31:31.962Z,101092.60
2022-10-18T17:34:05.204Z,101095.20
2022-10-18T17:36:38.341Z,101094.20
2022-10-18T17:39:13.464Z,101107.00
2022-10-18T17:41:46.296Z,101106.60
2022-10-18T17:44:19.111Z,101111.80
2022-10-18T17:46:52.264Z,101116.20
2022-10-18T17:49:25.230Z,101125.00
2022-10-18T17:51:58.151Z,101130.80
2022-10-18T17:54:31.301Z,101127.40
2022-10-18T17:57:04.389Z,101116.20
2022-10-18T17:59:37.328Z,101118.40
2022-10-18T18:02:10.849Z,101117.40
2022-10-18T18:04:43.813Z,101122.60
2022-10-18T18:07:16.573Z,101131.00
2022-10-18T18:09:49.371Z,101126.60
2022-10-18T18:12:22.476Z,101127.80
2022-10-18T18:14:55.516Z,101120.80
2022-10-18T18:17:34.400Z,101119.80
2022-10-18T18:20:14.729Z,101116.00
2022-10-18T18:22:47.821Z,101121.20
2022-10-18T18:25:20.689Z,101117.40
2022-10-18T18:27:53.561Z,101117.40
2022-10-18T18:30:26.493Z,101106.40
2022-10-18T18:32:59.371Z,101109.00
2022-10-18T18:35:33.076Z,101121.40
2022-10-18T18:38:06.002Z,101117.20
2022-10-18T18:40:38.882Z,101117.20
2022-10-18T18:43:22.878Z,101129.40
2022-10-18T18:45:56.558Z,101126.60
2022-10-18T18:48:32.714Z,101122.60
2022-10-18T18:51:06.608Z,101124.60
2022-10-18T18:53:40.368Z,101124.40
2022-10-18T18:56:16.279Z,101128.80
2022-10-18T18:58:49.809Z,101130.00
2022-10-18T19:01:25.123Z,101120.60
2022-10-18T19:03:59.414Z,101120.20
2022-10-18T19:06:34.346Z,101115.60
2022-10-18T19:09:12.971Z,101110.00
2022-10-18T19:11:46.776Z,101116.40
2022-10-18T19:14:20.173Z,101118.00
2022-10-18T19:16:54.717Z,101116.80
2022-10-18T19:19:29.352Z,101115.80
2022-10-18T19:22:05.124Z,101116.40
2022-10-18T19:24:38.081Z,101114.80
2022-10-18T19:27:13.203Z,101113.60
2022-10-18T19:29:47.512Z,101116.60
2022-10-18T19:32:20.427Z,101116.80
2022-10-18T19:34:53.544Z,101116.80
2022-10-18T19:37:26.283Z,101117.40
2022-10-18T19:39:59.634Z,101119.60
2022-10-18T19:42:32.849Z,101115.20
2022-10-18T19:45:06.606Z,101116.40
2022-10-18T19:47:41.310Z,101115.20
2022-10-18T19:50:14.542Z,101111.40
2022-10-18T19:52:47.458Z,101109.20
2022-10-18T19:55:20.550Z,101110.20
2022-10-18T19:57:53.268Z,101112.20
2022-10-18T20:00:26.125Z,101113.00
2022-10-18T20:02:58.964Z,101098.80
2022-10-18T20:05:31.746Z,101103.40
2022-10-18T20:08:04.588Z,101098.20
2022-10-18T20:10:37.596Z,101101.40
2022-10-18T20:13:10.396Z,101101.40
2022-10-18T20:15:43.233Z,101106.60
2022-10-18T20:18:16.496Z,101108.80
2022-10-18T20:20:50.189Z,101109.20
2022-10-18T20:23:23.678Z,101112.40
2022-10-18T20:26:05.232Z,101112.20
2022-10-18T20:28:38.643Z,101110.00
2022-10-18T20:31:17.076Z,101115.20
2022-10-18T20:33:54.558Z,101115.80
2022-10-18T20:36:28.227Z,101116.80
2022-10-18T20:39:01.572Z,101107.40
2022-10-18T20:41:38.147Z,101107.80
2022-10-18T20:44:16.923Z,101107.80
2022-10-18T20:46:49.977Z,101115.20
2022-10-18T20:49:22.896Z,101112.60
2022-10-18T20:51:55.699Z,101114.60
2022-10-18T20:54:28.755Z,101113.00
2022-10-18T20:57:01.632Z,101114.80
2022-10-18T20:59:34.802Z,101111.80
2022-10-18T21:02:08.064Z,101110.80
2022-10-18T21:04:42.309Z,101106.60
2022-10-18T21:07:15.230Z,101108.40
2022-10-18T21:09:48.053Z,101111.20
2022-10-18T21:12:20.874Z,101108.40
2022-10-18T21:14:54.189Z,101108.80
2022-10-18T21:17:26.972Z,101114.80
2022-10-18T21:20:01.204Z,101109.00
2022-10-18T21:22:34.397Z,101109.20
2022-10-18T21:25:09.012Z,101105.80
2022-10-18T21:27:41.860Z,101113.20
2022-10-18T21:30:16.102Z,101112.60
2022-10-18T21:32:52.601Z,101111.40
2022-10-18T21:35:25.655Z,101106.60
2022-10-18T21:37:58.362Z,101102.60
2022-10-18T21:40:31.224Z,101101.40
2022-10-18T21:43:03.990Z,101102.20
2022-10-18T21:45:36.718Z,101108.00
2022-10-18T21:48:10.081Z,101103.60
2022-10-18T21:50:43.077Z,101107.80
2022-10-18T21:53:16.831Z,101110.20
2022-10-18T21:55:49.666Z,101108.60
2022-10-18T21:58:22.664Z,101104.20
2022-10-18T22:00:55.531Z,101105.80
2022-10-18T22:03:28.520Z,101097.00
2022-10-18T22:06:07.829Z,101095.40
2022-10-18T22:08:40.671Z,101093.60
2022-10-18T22:11:14.606Z,101090.20
2022-10-18T22:13:47.694Z,101093.40
2022-10-18T22:16:21.020Z,101090.80
2022-10-18T22:18:58.018Z,101090.40
2022-10-18T22:21:32.155Z,101087.40
2022-10-18T22:24:07.701Z,101082.40
2022-10-18T22:26:42.883Z,101082.60
2022-10-18T22:29:18.886Z,101084.20
2022-10-18T22:31:53.883Z,101083.00
2022-10-18T22:34:29.147Z,101081.40
2022-10-18T22:37:02.406Z,101084.80
2022-10-18T22:39:35.699Z,101084.40
2022-10-18T22:42:08.818Z,101084.00
2022-10-18T22:44:41.600Z,101081.00
2022-10-18T22:47:14.383Z,101083.80
2022-10-18T22:49:47.379Z,101087.80
2022-10-18T22:52:20.186Z,101090.20
2022-10-18T22:54:53.035Z,101077.80
2022-10-18T22:57:25.881Z,101079.00
2022-10-18T22:59:58.654Z,101080.80
2022-10-18T23:02:31.779Z,101082.00
2022-10-18T23:05:04.840Z,101080.60
2022-10-18T23:07:37.719Z,101082.80
2022-10-18T23:10:11.506Z,101083.20
2022-10-18T23:12:44.262Z,101078.40
2022-10-18T23:15:17.100Z,101077.60
2022-10-18T23:17:50.282Z,101072.60
2022-10-18T23:20:23.254Z,101070.20
2022-10-18T23:22:56.285Z,101065.80
2022-10-18T23:25:29.392Z,101061.80
2022-10-18T23:28:02.628Z,101058.80
2022-10-18T23:30:35.520Z,101058.20
2022-10-18T23:33:08.498Z,101062.00
2022-10-18T23:35:41.288Z,101051.60
2022-10-18T23:38:14.112Z,101059.20
2022-10-18T23:40:46.877Z,101056.00
2022-10-18T23:43:19.719Z,101051.20
2022-10-18T23:45:52.502Z,101054.20
2022-10-18T23:48:25.500Z,101052.00
2022-10-18T23:50:58.408Z,101049.60
2022-10-18T23:53:31.676Z,101056.60
2022-10-18T23:56:06.924Z,101058.80
2022-10-18T23:58:40.978Z,101054.60
